Time;durP1;ratioP1;P1;durP2;ratioP2;P2;SDS_P1;SDS_P2;PMS_P1;PMS_P2;Temp;Humidity;BMP_temperature;BMP_pressure;BME280_temperature;BME280_humidity;BME280_pressure;Samples;Min_cycle;Max_cycle;Signal;HPM_P1;HPM_P2
2024/01/27 00:01:15;;;;;;;0.00;0.00;;;;;;;5.08;100.00;100773.84;5054289;28;20211;-52
2024/01/27 00:04:02;;;;;;;0.10;0.10;;;;;;;4.96;100.00;100782.78;5053488;28;20682;-53
2024/01/27 00:06:49;;;;;;;0.00;0.00;;;;;;;4.98;100.00;100793.25;5053031;28;20196;-53
2024/01/27 00:09:36;;;;;;;0.07;0.07;;;;;;;5.02;100.00;100780.06;5054355;28;20192;-53
2024/01/27 00:12:24;;;;;;;0.10;0.10;;;;;;;5.01;100.00;100782.69;5054225;28;20198;-53
2024/01/27 00:15:11;;;;;;;0.10;0.10;;;;;;;4.99;100.00;100795.00;5054152;28;20195;-53
2024/01/27 00:17:58;;;;;;;0.10;0.10;;;;;;;4.97;100.00;100786.28;5054035;28;20251;-52
2024/01/27 00:20:45;;;;;;;0.10;0.10;;;;;;;5.06;100.00;100794.00;5053775;28;20262;-52
2024/01/27 00:23:32;;;;;;;0.00;0.00;;;;;;;4.97;100.00;100788.91;5053887;28;20203;-52
2024/01/27 00:26:18;;;;;;;0.00;0.00;;;;;;;4.96;100.00;100790.66;5054116;28;20200;-52
2024/01/27 00:29:07;;;;;;;0.10;0.10;;;;;;;5.10;100.00;100788.69;5053621;28;20191;-53
2024/01/27 00:31:54;;;;;;;0.00;0.00;;;;;;;4.93;100.00;100793.34;5053910;28;20196;-53
2024/01/27 00:34:41;;;;;;;0.10;0.10;;;;;;;5.06;100.00;100796.63;5053789;28;20323;-53
2024/01/27 00:37:28;;;;;;;0.10;0.10;;;;;;;4.97;100.00;100792.41;5052216;28;20670;-52
2024/01/27 00:40:15;;;;;;;0.10;0.10;;;;;;;4.94;100.00;100792.44;5053603;28;20189;-53
2024/01/27 00:43:03;;;;;;;0.10;0.10;;;;;;;4.93;100.00;100777.59;5053752;28;20248;-52
2024/01/27 00:45:51;;;;;;;0.10;0.10;;;;;;;4.88;100.00;100779.41;5053309;28;20210;-52
2024/01/27 00:48:38;;;;;;;0.00;0.00;;;;;;;5.01;100.00;100782.69;5053521;28;20196;-53
2024/01/27 00:51:25;;;;;;;0.00;0.00;;;;;;;5.01;100.00;100782.69;5052154;28;20230;-53
2024/01/27 00:54:12;;;;;;;0.00;0.00;;;;;;;4.91;100.00;100792.47;5053206;28;20200;-52
2024/01/27 00:56:59;;;;;;;0.10;0.10;;;;;;;4.78;100.00;100790.91;5052860;28;20214;-52
2024/01/27 00:59:46;;;;;;;0.00;0.00;;;;;;;4.78;100.00;100789.16;5053340;28;20196;-52
2024/01/27 01:02:34;;;;;;;0.10;0.10;;;;;;;4.73;100.00;100782.22;5052746;28;20224;-52
2024/01/27 01:05:21;;;;;;;0.10;0.10;;;;;;;4.67;100.00;100790.22;5053068;28;20208;-52
2024/01/27 01:08:07;;;;;;;0.10;0.10;;;;;;;4.66;100.00;100797.22;5051876;28;20682;-52
2024/01/27 01:10:54;;;;;;;0.10;0.10;;;;;;;4.66;100.00;100797.22;5053000;28;20192;-52
2024/01/27 01:13:41;;;;;;;0.10;0.10;;;;;;;4.58;100.00;100794.69;5053128;28;20196;-52
2024/01/27 01:16:28;;;;;;;0.10;0.10;;;;;;;4.53;100.00;100803.50;5052954;28;20192;-52
2024/01/27 01:19:16;;;;;;;0.10;0.10;;;;;;;4.55;100.00;100818.34;5052524;28;20259;-52
2024/01/27 01:22:03;;;;;;;0.00;0.00;;;;;;;4.49;100.00;100814.94;5051586;28;20282;-52
2024/01/27 01:24:50;;;;;;;0.10;0.10;;;;;;;4.46;100.00;100817.59;5052959;28;20196;-52
2024/01/27 01:27:37;;;;;;;0.10;0.10;;;;;;;4.39;100.00;100824.66;5052639;28;20203;-53
2024/01/27 01:30:24;;;;;;;0.07;0.07;;;;;;;4.52;100.00;100828.00;5052957;28;20207;-53
2024/01/27 01:33:11;;;;;;;0.10;0.10;;;;;;;4.37;100.00;100831.69;5052874;28;20276;-52
2024/01/27 01:36:00;;;;;;;0.10;0.10;;;;;;;4.31;100.00;100831.75;5052639;28;20204;-53
2024/01/27 01:38:47;;;;;;;0.10;0.10;;;;;;;4.31;100.00;100840.50;5052901;28;20191;-52
2024/01/27 01:41:34;;;;;;;0.10;0.10;;;;;;;4.31;100.00;100850.09;5052594;28;20227;-53
2024/01/27 01:44:21;;;;;;;0.10;0.10;;;;;;;4.36;100.00;100848.31;5052983;28;20200;-53
2024/01/27 01:47:09;;;;;;;0.10;0.10;;;;;;;4.33;100.00;100858.81;5059414;28;20191;-53
2024/01/27 01:49:57;;;;;;;0.10;0.10;;;;;;;4.35;100.00;100858.84;5059364;28;20207;-53
2024/01/27 01:52:47;;;;;;;0.10;0.10;;;;;;;4.28;100.00;100860.66;5058003;28;20327;-53
2024/01/27 01:55:33;;;;;;;0.10;0.10;;;;;;;4.32;100.00;100867.59;5059311;28;20196;-52
2024/01/27 01:58:20;;;;;;;0.10;0.10;;;;;;;4.26;100.00;100867.66;5059316;28;20310;-53
2024/01/27 02:01:07;;;;;;;0.10;0.10;;;;;;;4.26;100.00;100868.53;5059100;28;20231;-52
2024/01/27 02:03:55;;;;;;;0.00;0.00;;;;;;;4.24;100.00;100866.78;5058986;28;20247;-52
2024/01/27 02:06:41;;;;;;;0.10;0.10;;;;;;;4.19;100.00;100869.47;5057400;28;20192;-53
2024/01/27 02:09:30;;;;;;;0.10;0.10;;;;;;;4.26;100.00;100867.66;5059087;28;20200;-52
2024/01/27 02:12:17;;;;;;;0.10;0.10;;;;;;;4.12;100.00;100870.41;5059244;28;20192;-53
2024/01/27 02:15:06;;;;;;;0.00;0.00;;;;;;;4.23;100.00;100871.16;5058831;28;20200;-53
2024/01/27 02:17:52;;;;;;;0.10;0.10;;;;;;;4.18;100.00;100864.25;5039116;28;20201;-52
2024/01/27 02:20:39;;;;;;;0.00;0.00;;;;;;;4.25;100.00;100864.19;5039252;28;20683;-53
2024/01/27 02:23:26;;;;;;;0.10;0.10;;;;;;;4.19;100.00;100861.63;5038586;28;20200;-53
2024/01/27 02:26:15;;;;;;;0.10;0.10;;;;;;;4.15;100.00;100865.16;5045789;28;20258;-52
2024/01/27 02:29:02;;;;;;;0.00;0.00;;;;;;;4.17;100.00;100868.63;5059173;28;20200;-51
2024/01/27 02:31:49;;;;;;;0.07;0.07;;;;;;;4.24;100.00;100867.66;5059097;28;20289;-52
2024/01/27 02:34:36;;;;;;;0.10;0.10;;;;;;;4.12;100.00;100874.78;5059078;28;20208;-52
2024/01/27 02:37:23;;;;;;;0.00;0.00;;;;;;;4.03;100.00;100863.50;5057491;28;20229;-52
2024/01/27 02:40:11;;;;;;;0.10;0.10;;;;;;;4.08;100.00;100863.47;5058939;28;20215;-52
2024/01/27 02:42:59;;;;;;;0.10;0.10;;;;;;;4.10;100.00;100866.94;5058763;28;20224;-52
2024/01/27 02:45:46;;;;;;;0.10;0.10;;;;;;;4.07;100.00;100869.59;5058695;28;20195;-52
2024/01/27 02:48:33;;;;;;;0.10;0.10;;;;;;;4.10;100.00;100868.69;5059003;28;20195;-53
2024/01/27 02:51:21;;;;;;;0.10;0.10;;;;;;;3.94;100.00;100868.84;5057545;28;20220;-52
2024/01/27 02:54:08;;;;;;;0.10;0.10;;;;;;;3.66;100.00;100867.34;5058612;28;20188;-53
2024/01/27 02:56:55;;;;;;;0.10;0.10;;;;;;;3.58;100.00;100877.03;5055906;28;20208;-52
2024/01/27 02:59:46;;;;;;;0.10;0.10;;;;;;;3.53;100.00;100884.91;5055826;28;20247;-52
2024/01/27 03:02:33;;;;;;;0.10;0.10;;;;;;;3.37;100.00;100884.16;5055380;28;20217;-53
2024/01/27 03:05:20;;;;;;;0.10;0.10;;;;;;;3.42;100.00;100882.38;5015904;28;20197;-53
2024/01/27 03:08:07;;;;;;;0.10;0.10;;;;;;;3.29;100.00;100893.84;4994860;28;20214;-52
2024/01/27 03:10:54;;;;;;;0.00;0.00;;;;;;;3.29;100.00;100890.34;4996186;28;20198;-53
2024/01/27 03:13:44;;;;;;;0.10;0.10;;;;;;;3.22;100.00;100886.88;4996004;28;20202;-52
2024/01/27 03:16:33;;;;;;;0.10;0.10;;;;;;;3.26;100.00;100885.97;5004466;28;20197;-52
2024/01/27 03:19:20;;;;;;;0.10;0.10;;;;;;;3.14;100.00;100889.53;5015576;28;20241;-53
2024/01/27 03:22:07;;;;;;;0.10;0.10;;;;;;;2.98;100.00;100897.47;5013981;28;20285;-53
2024/01/27 03:24:55;;;;;;;0.10;0.10;;;;;;;2.92;100.00;100895.78;5015220;28;20261;-53
2024/01/27 03:27:42;;;;;;;0.10;0.10;;;;;;;3.11;100.00;100894.81;5015373;28;20202;-52
2024/01/27 03:30:29;;;;;;;0.00;0.00;;;;;;;2.94;100.00;100901.88;5015345;28;20337;-53
2024/01/27 03:33:17;;;;;;;0.10;0.10;;;;;;;3.11;100.00;100909.66;5015348;28;20252;-53
2024/01/27 03:36:09;;;;;;;0.00;0.00;;;;;;;3.24;100.00;100911.31;5014042;28;20294;-53
2024/01/27 03:38:57;;;;;;;0.10;0.10;;;;;;;3.54;100.00;100917.22;5015050;28;20293;-52
2024/01/27 03:41:44;;;;;;;0.10;0.10;;;;;;;3.03;100.00;100914.03;5015050;28;20205;-52
2024/01/27 03:44:31;;;;;;;0.10;0.10;;;;;;;2.69;100.00;100913.31;5015074;28;20193;-52
2024/01/27 03:47:18;;;;;;;0.10;0.10;;;;;;;2.52;100.00;100903.78;5014743;28;20780;-51
2024/01/27 03:50:08;;;;;;;0.10;0.10;;;;;;;2.41;100.00;100897.69;5015014;28;20201;-52
2024/01/27 03:52:55;;;;;;;0.10;0.10;;;;;;;2.41;100.00;100905.53;5013640;28;20198;-53
2024/01/27 03:55:42;;;;;;;0.10;0.10;;;;;;;2.55;100.00;100902.91;5014694;28;20680;-52
2024/01/27 03:58:28;;;;;;;0.10;0.10;;;;;;;2.47;100.00;100904.66;5014775;28;20200;-52
2024/01/27 04:01:16;;;;;;;0.10;0.10;;;;;;;2.85;100.00;100907.16;5014930;28;20213;-53
2024/01/27 04:04:02;;;;;;;0.00;0.00;;;;;;;2.67;100.00;100915.94;5035995;28;20271;-52
2024/01/27 04:06:51;;;;;;;0.10;0.10;;;;;;;2.50;100.00;100915.97;5052955;28;20196;-52
2024/01/27 04:09:38;;;;;;;0.10;0.10;;;;;;;2.46;100.00;100914.25;5053642;28;20335;-52
2024/01/27 04:12:25;;;;;;;0.10;0.10;;;;;;;2.29;100.00;100913.41;5054120;28;20196;-52
2024/01/27 04:15:12;;;;;;;0.10;0.10;;;;;;;2.17;100.00;100922.16;5054319;28;20263;-52
2024/01/27 04:17:58;;;;;;;0.10;0.10;;;;;;;1.97;100.00;100919.56;5054113;28;20263;-53
2024/01/27 04:20:45;;;;;;;0.10;0.10;;;;;;;2.08;100.00;100914.34;5053951;28;20221;-53
2024/01/27 04:23:33;;;;;;;0.10;0.10;;;;;;;2.37;100.00;100918.63;5053731;28;20267;-53
2024/01/27 04:26:20;;;;;;;0.10;0.10;;;;;;;2.52;100.00;100923.84;5053989;28;20659;-52
2024/01/27 04:29:08;;;;;;;0.10;0.10;;;;;;;2.31;100.00;100922.13;5053745;28;20191;-52
2024/01/27 04:31:54;;;;;;;0.10;0.10;;;;;;;2.06;100.00;100926.53;5053872;28;20212;-53
2024/01/27 04:34:41;;;;;;;0.10;0.10;;;;;;;2.07;100.00;100936.13;5053961;28;20266;-52
2024/01/27 04:37:28;;;;;;;0.10;0.10;;;;;;;1.90;100.00;100937.84;5052298;28;20204;-53
2024/01/27 04:40:16;;;;;;;0.10;0.10;;;;;;;2.31;100.00;100932.59;5053696;28;20196;-52
2024/01/27 04:43:04;;;;;;;0.10;0.10;;;;;;;2.43;100.00;100942.16;5053407;28;20212;-52
2024/01/27 04:45:51;;;;;;;0.10;0.10;;;;;;;2.03;100.00;100950.06;5053516;28;20657;-52
2024/01/27 04:48:38;;;;;;;0.10;0.10;;;;;;;2.15;100.00;100944.81;5053608;28;20687;-52
2024/01/27 04:51:24;;;;;;;0.10;0.10;;;;;;;2.01;100.00;100959.63;5052213;28;20192;-53
2024/01/27 04:54:11;;;;;;;0.10;0.10;;;;;;;1.96;100.00;100959.63;5053398;28;20184;-52
2024/01/27 04:56:59;;;;;;;0.00;0.00;;;;;;;2.19;100.00;100951.78;5053408;28;20200;-53
2024/01/27 04:59:46;;;;;;;0.10;0.10;;;;;;;2.54;100.00;100959.56;5052884;28;20239;-53
2024/01/27 05:02:33;;;;;;;0.10;0.10;;;;;;;2.10;100.00;100970.06;5033264;28;20267;-52
2024/01/27 05:05:19;;;;;;;0.10;0.10;;;;;;;2.26;100.00;100966.59;5033368;28;20239;-52
2024/01/27 05:08:07;;;;;;;0.10;0.10;;;;;;;1.97;100.00;100961.38;5032262;28;20240;-52
2024/01/27 05:10:54;;;;;;;0.10;0.10;;;;;;;1.63;100.00;100968.31;5033138;28;20243;-53
2024/01/27 05:13:46;;;;;;;0.10;0.10;;;;;;;1.71;100.00;100969.19;5032376;28;20197;-53
2024/01/27 05:16:34;;;;;;;0.07;0.07;;;;;;;1.85;100.00;100976.19;5040080;28;20208;-53
2024/01/27 05:19:22;;;;;;;0.10;0.10;;;;;;;1.31;100.00;100969.97;5052581;28;20191;-52
2024/01/27 05:22:09;;;;;;;0.10;0.10;;;;;;;1.43;100.00;100970.88;5051632;28;20200;-52
2024/01/27 05:24:56;;;;;;;0.10;0.10;;;;;;;1.49;100.00;100974.38;5053052;28;20315;-52
2024/01/27 05:27:43;;;;;;;0.10;0.10;;;;;;;1.31;100.00;100978.69;5052816;28;20220;-52
2024/01/27 05:30:31;;;;;;;0.10;0.10;;;;;;;2.27;100.00;100965.72;5052912;28;20196;-52
2024/01/27 05:33:18;;;;;;;0.00;0.00;;;;;;;1.74;100.00;100976.19;5052578;28;20188;-52
2024/01/27 05:36:06;;;;;;;0.10;0.10;;;;;;;1.78;100.00;100988.38;5051474;28;20304;-53
2024/01/27 05:38:53;;;;;;;0.10;0.10;;;;;;;1.42;100.00;100976.09;5052760;28;20290;-52
2024/01/27 05:41:40;;;;;;;0.10;0.10;;;;;;;1.57;100.00;100988.34;5052788;28;20255;-52
2024/01/27 05:44:27;;;;;;;0.10;0.10;;;;;;;1.19;100.00;100972.56;5052407;28;20224;-53
2024/01/27 05:47:15;;;;;;;0.10;0.10;;;;;;;1.51;100.00;100977.88;5052686;28;20200;-52
2024/01/27 05:50:02;;;;;;;0.10;0.10;;;;;;;1.26;100.00;100979.56;5052749;28;20319;-52
2024/01/27 05:52:49;;;;;;;0.10;0.10;;;;;;;1.15;100.00;100984.72;5051461;28;20267;-52
2024/01/27 05:55:36;;;;;;;0.10;0.10;;;;;;;1.24;100.00;100987.34;5052593;28;20208;-52
2024/01/27 05:58:23;;;;;;;0.10;0.10;;;;;;;1.23;100.00;100997.78;5032745;28;20248;-52
2024/01/27 06:01:10;;;;;;;0.10;0.10;;;;;;;1.15;100.00;101001.25;5032695;28;20369;-52
2024/01/27 06:03:58;;;;;;;0.10;0.10;;;;;;;1.01;100.00;100992.50;5048391;28;20240;-52
2024/01/27 06:06:45;;;;;;;0.10;0.10;;;;;;;1.44;100.00;100995.25;5051188;28;20231;-53
2024/01/27 06:09:32;;;;;;;0.03;0.03;;;;;;;1.17;100.00;101000.41;5052523;28;20273;-52
2024/01/27 06:12:19;;;;;;;0.10;0.10;;;;;;;1.56;100.00;101003.13;5052456;28;20225;-52
2024/01/27 06:15:08;;;;;;;0.10;0.10;;;;;;;1.62;100.00;101004.88;5052552;28;20189;-53
2024/01/27 06:17:55;;;;;;;0.10;0.10;;;;;;;2.21;100.00;101010.16;5052399;28;20200;-52
2024/01/27 06:20:44;;;;;;;0.10;0.10;;;;;;;2.59;100.00;101019.72;5052660;28;20192;-52
2024/01/27 06:23:31;;;;;;;0.10;0.10;;;;;;;2.37;100.00;101026.72;5052266;28;20212;-52
2024/01/27 06:26:18;;;;;;;0.00;0.00;;;;;;;1.80;100.00;101027.53;5052297;28;20197;-52
2024/01/27 06:29:05;;;;;;;0.10;0.10;;;;;;;1.69;100.00;101022.31;5052466;28;20208;-52
2024/01/27 06:31:52;;;;;;;0.00;0.00;;;;;;;1.36;100.00;101037.03;5054464;28;20594;-52
2024/01/27 06:34:39;;;;;;;0.10;0.10;;;;;;;1.10;100.00;101036.03;5056227;28;20224;-52
2024/01/27 06:37:27;;;;;;;0.10;0.10;;;;;;;1.36;100.00;101037.03;5054815;28;20203;-52
2024/01/27 06:40:15;;;;;;;0.10;0.10;;;;;;;1.40;100.00;101048.34;5055964;28;20195;-53
2024/01/27 06:43:02;;;;;;;0.10;0.10;;;;;;;1.68;100.00;101059.75;5055992;28;20196;-52
2024/01/27 06:45:50;;;;;;;0.10;0.10;;;;;;;1.25;100.00;101056.94;5055943;28;20690;-52
2024/01/27 06:48:37;;;;;;;0.10;0.10;;;;;;;1.05;100.00;101051.63;5055739;28;20383;-52
2024/01/27 06:51:24;;;;;;;0.10;0.10;;;;;;;0.98;100.00;101055.09;5054506;28;20208;-52
2024/01/27 06:54:12;;;;;;;0.10;0.10;;;;;;;0.86;100.00;101047.19;5055759;28;20230;-52
2024/01/27 06:57:00;;;;;;;0.10;0.10;;;;;;;1.69;100.00;101049.28;5055599;28;20304;-52
2024/01/27 06:59:51;;;;;;;0.10;0.10;;;;;;;1.64;100.00;101048.44;5055060;28;20238;-53
2024/01/27 07:02:38;;;;;;;0.10;0.10;;;;;;;1.18;100.00;101050.00;5055548;28;20309;-52
2024/01/27 07:05:25;;;;;;;0.10;0.10;;;;;;;1.14;100.00;101053.44;5039891;28;20228;-52
2024/01/27 07:08:12;;;;;;;0.10;0.10;;;;;;;0.89;100.00;101054.19;5038943;28;20284;-52
2024/01/27 07:11:01;;;;;;;0.10;0.10;;;;;;;0.67;100.00;101059.22;5055453;28;20259;-53
2024/01/27 07:13:48;;;;;;;0.10;0.10;;;;;;;0.98;100.00;101059.44;5055105;28;20344;-52
2024/01/27 07:16:34;;;;;;;0.10;0.10;;;;;;;0.63;100.00;101054.00;5055238;28;20188;-53
2024/01/27 07:19:21;;;;;;;0.10;0.10;;;;;;;0.95;100.00;101057.69;5055349;28;20196;-52
2024/01/27 07:22:08;;;;;;;0.00;0.00;;;;;;;1.04;100.00;101057.72;5053795;28;20311;-53
2024/01/27 07:24:56;;;;;;;0.10;0.10;;;;;;;1.41;100.00;101056.16;5054934;28;20298;-52
2024/01/27 07:27:44;;;;;;;0.10;0.10;;;;;;;0.95;100.00;101059.41;5054695;28;20200;-52
2024/01/27 07:30:31;;;;;;;0.03;0.03;;;;;;;1.50;100.00;101049.22;5054930;28;20671;-52
2024/01/27 07:33:18;;;;;;;0.10;0.10;;;;;;;1.13;100.00;101046.47;5055027;28;20290;-52
2024/01/27 07:36:05;;;;;;;0.10;0.10;;;;;;;1.01;100.00;101056.84;5053420;28;20196;-52
2024/01/27 07:38:52;;;;;;;0.10;0.10;;;;;;;0.76;100.00;101058.44;5054620;28;20196;-52
2024/01/27 07:41:39;;;;;;;0.10;0.10;;;;;;;0.75;100.00;101065.38;5054833;28;20246;-52
2024/01/27 07:44:28;;;;;;;0.10;0.10;;;;;;;1.16;100.00;101072.59;5053978;28;20223;-53
2024/01/27 07:47:15;;;;;;;0.10;0.10;;;;;;;1.09;100.00;101063.00;5054556;28;20196;-53
2024/01/27 07:50:02;;;;;;;0.10;0.10;;;;;;;1.59;100.00;101075.38;5054780;28;20275;-52
2024/01/27 07:52:48;;;;;;;0.10;0.10;;;;;;;1.44;100.00;101084.00;5053235;28;20215;-53
2024/01/27 07:55:35;;;;;;;0.10;0.10;;;;;;;1.90;100.00;101081.56;5054447;28;20185;-52
2024/01/27 07:58:22;;;;;;;0.00;0.00;;;;;;;2.40;100.00;101079.00;5054514;28;20199;-52
2024/01/27 08:01:10;;;;;;;0.10;0.10;;;;;;;2.07;100.00;101082.47;5054263;28;20303;-53
2024/01/27 08:03:57;;;;;;;0.10;0.10;;;;;;;2.26;100.00;101072.91;5053331;28;20355;-52
2024/01/27 08:06:49;;;;;;;0.10;0.10;;;;;;;2.40;100.00;101083.38;5052998;28;20188;-52
2024/01/27 08:09:37;;;;;;;0.00;0.00;;;;;;;2.39;100.00;101071.16;5054322;28;20729;-53
2024/01/27 08:12:25;;;;;;;0.10;0.10;;;;;;;2.59;100.00;101082.50;5053870;28;20204;-53
2024/01/27 08:15:13;;;;;;;0.10;0.10;;;;;;;2.36;100.00;101081.63;5054282;28;20200;-52
2024/01/27 08:18:01;;;;;;;0.10;0.10;;;;;;;2.46;100.00;101080.75;5038848;28;20195;-53
2024/01/27 08:20:48;;;;;;;0.10;0.10;;;;;;;2.99;100.00;101085.06;5053981;28;20318;-53
2024/01/27 08:23:34;;;;;;;0.10;0.10;;;;;;;2.81;100.00;101083.38;5054087;28;20192;-52
2024/01/27 08:26:22;;;;;;;0.10;0.10;;;;;;;2.94;100.00;101085.06;5053663;28;20357;-52
2024/01/27 08:29:08;;;;;;;0.07;0.07;;;;;;;3.25;100.00;101087.63;5053895;28;20196;-52
2024/01/27 08:31:55;;;;;;;0.07;0.07;;;;;;;3.19;100.00;101101.63;5053902;28;20192;-53
2024/01/27 08:34:43;;;;;;;0.10;0.10;;;;;;;3.37;100.00;101093.66;5053786;28;20196;-53
2024/01/27 08:37:36;;;;;;;0.10;0.10;;;;;;;3.67;100.00;101091.84;5052413;28;20199;-53
2024/01/27 08:40:23;;;;;;;0.10;0.10;;;;;;;3.95;100.00;101093.41;5053780;28;20200;-53
2024/01/27 08:43:10;;;;;;;0.10;0.10;;;;;;;4.07;100.00;101100.34;5053520;28;20188;-53
2024/01/27 08:45:57;;;;;;;0.10;0.10;;;;;;;4.28;100.00;101096.72;5053303;28;20224;-53
2024/01/27 08:48:44;;;;;;;0.07;0.07;;;;;;;4.06;100.00;101108.22;5033684;28;20556;-53
2024/01/27 08:51:32;;;;;;;0.10;0.10;;;;;;;4.64;100.00;101108.69;5032309;28;20200;-53
2024/01/27 08:54:19;;;;;;;0.10;0.10;;;;;;;4.30;100.00;101106.31;5032915;28;20264;-53
2024/01/27 08:57:06;;;;;;;0.10;0.10;;;;;;;4.81;100.00;101106.75;5041665;28;20270;-52
2024/01/27 08:59:53;;;;;;;0.03;0.03;;;;;;;4.73;100.00;101111.22;5053355;28;20191;-52
2024/01/27 09:02:40;;;;;;;0.10;0.10;;;;;;;5.15;100.00;101109.06;5053386;28;20316;-53
2024/01/27 09:05:31;;;;;;;0.10;0.10;;;;;;;5.62;100.00;101108.53;5053118;28;20215;-53
2024/01/27 09:08:19;;;;;;;0.00;0.00;;;;;;;5.96;100.00;101105.50;5052631;28;20199;-53
2024/01/27 09:11:06;;;;;;;0.10;0.10;;;;;;;5.91;100.00;101105.56;5033311;28;20205;-53
2024/01/27 09:13:53;;;;;;;0.10;0.10;;;;;;;5.75;100.00;101109.25;5033281;28;20259;-53
2024/01/27 09:16:41;;;;;;;0.10;0.10;;;;;;;6.12;100.00;101103.53;5037516;28;20200;-53
2024/01/27 09:19:28;;;;;;;0.03;0.03;;;;;;;6.24;100.00;101114.72;5053160;28;20235;-53
2024/01/27 09:22:15;;;;;;;0.10;0.10;;;;;;;6.42;100.00;101116.22;5051691;28;20203;-53
2024/01/27 09:25:03;;;;;;;0.10;0.10;;;;;;;6.63;100.00;101117.63;5052669;28;20215;-53
2024/01/27 09:27:50;;;;;;;0.10;0.10;;;;;;;7.89;100.00;101111.72;5052629;28;20200;-53
2024/01/27 09:30:37;;;;;;;0.00;0.00;;;;;;;9.35;100.00;101114.34;5052585;28;20222;-53
2024/01/27 09:33:25;;;;;;;0.10;0.10;;;;;;;10.41;100.00;101110.31;5052865;28;20204;-53
2024/01/27 09:36:12;;;;;;;0.00;0.00;;;;;;;10.42;96.13;101104.13;5051442;28;20216;-53
2024/01/27 09:39:00;;;;;;;0.10;0.10;;;;;;;11.68;85.09;101098.84;5052698;28;20200;-53
2024/01/27 09:41:49;;;;;;;0.10;0.10;;;;;;;12.20;74.17;101096.88;5052690;28;20188;-53
2024/01/27 09:44:37;;;;;;;0.03;0.03;;;;;;;12.48;67.39;101091.31;5052781;28;20200;-54
2024/01/27 09:47:24;;;;;;;0.10;0.10;;;;;;;13.94;61.77;101089.34;5052723;28;20196;-53
2024/01/27 09:50:12;;;;;;;0.10;0.10;;;;;;;13.98;60.72;101084.72;5052562;28;20196;-53
2024/01/27 09:53:00;;;;;;;0.10;0.10;;;;;;;13.09;58.38;101085.19;5051453;28;20203;-53
2024/01/27 09:55:47;;;;;;;0.10;0.10;;;;;;;14.99;53.25;101083.31;5052833;28;20215;-53
2024/01/27 09:58:35;;;;;;;0.10;0.10;;;;;;;14.71;53.57;101083.00;5052432;28;20322;-53
2024/01/27 10:01:25;;;;;;;0.10;0.10;;;;;;;13.51;55.18;101077.16;5052720;28;20613;-53
2024/01/27 10:04:12;;;;;;;0.10;0.10;;;;;;;13.20;59.09;101079.44;5052334;28;20240;-53
2024/01/27 10:07:00;;;;;;;0.10;0.10;;;;;;;13.05;60.44;101081.81;5052916;28;20215;-53
2024/01/27 10:09:50;;;;;;;0.10;0.10;;;;;;;14.44;54.57;101083.38;5056537;28;20314;-53
2024/01/27 10:12:43;;;;;;;0.10;0.10;;;;;;;13.99;54.32;101074.03;5056529;28;20188;-53
2024/01/27 10:15:35;;;;;;;0.10;0.10;;;;;;;15.24;52.44;101066.88;5053673;28;20192;-54
2024/01/27 10:18:27;;;;;;;0.03;0.03;;;;;;;15.39;50.57;101065.22;5040525;28;20212;-53
2024/01/27 10:21:14;;;;;;;0.10;0.10;;;;;;;17.15;46.75;101069.47;5054315;28;20714;-54
2024/01/27 10:24:05;;;;;;;0.10;0.10;;;;;;;17.03;45.79;101056.81;5054880;28;20195;-54
2024/01/27 10:26:59;;;;;;;0.10;0.10;;;;;;;16.74;45.13;101064.78;5055232;28;20228;-54
2024/01/27 10:29:53;;;;;;;0.10;0.10;;;;;;;17.63;43.29;101059.34;5055350;28;20231;-54
2024/01/27 10:32:41;;;;;;;0.10;0.10;;;;;;;16.68;45.25;101057.09;5055011;28;20277;-54
2024/01/27 10:35:29;;;;;;;0.00;0.00;;;;;;;16.36;44.57;101060.75;5056020;28;20211;-53
2024/01/27 10:38:17;;;;;;;0.10;0.10;;;;;;;17.00;44.30;101065.91;5055857;28;20203;-53
2024/01/27 10:41:10;;;;;;;0.10;0.10;;;;;;;17.67;42.03;101060.91;5056041;28;20203;-54
2024/01/27 10:43:59;;;;;;;0.10;0.10;;;;;;;17.19;41.99;101057.63;5055947;28;20192;-54
2024/01/27 10:46:47;;;;;;;0.00;0.00;;;;;;;17.91;42.36;101050.44;5055263;28;20228;-54
2024/01/27 10:49:38;;;;;;;0.10;0.10;;;;;;;19.47;39.30;101031.84;5055710;28;20259;-54
2024/01/27 10:52:29;;;;;;;0.00;0.00;;;;;;;19.20;40.56;101024.75;5054595;28;20678;-54
2024/01/27 10:55:15;;;;;;;0.00;0.00;;;;;;;18.84;39.95;101026.38;5055830;28;20197;-54
2024/01/27 10:58:03;;;;;;;0.08;0.08;;;;;;;19.58;38.12;101010.47;5055627;28;20224;-54
2024/01/27 11:00:51;;;;;;;0.00;0.00;;;;;;;20.32;37.94;101006.78;5055661;28;20290;-54
2024/01/27 11:03:39;;;;;;;0.05;0.05;;;;;;;19.96;36.75;101003.16;5055155;28;20231;-54
2024/01/27 11:06:30;;;;;;;0.10;0.10;;;;;;;21.82;34.29;100997.78;5054048;28;20702;-54
2024/01/27 11:09:18;;;;;;;0.08;0.08;;;;;;;23.10;33.33;100987.81;5055491;28;20200;-54
2024/01/27 11:12:07;;;;;;;0.00;0.00;;;;;;;24.23;31.53;100985.78;5054885;28;20316;-54
2024/01/27 11:14:54;;;;;;;0.00;0.00;;;;;;;22.65;32.49;100997.16;5055354;28;20197;-54
2024/01/27 11:17:42;;;;;;;0.05;0.05;;;;;;;21.13;33.72;101005.94;5053788;28;20212;-54
2024/01/27 11:20:31;;;;;;;0.00;0.00;;;;;;;21.51;34.02;100997.53;5055273;28;20192;-54
2024/01/27 11:23:19;;;;;;;0.00;0.00;;;;;;;22.11;33.40;100996.28;5055050;28;20192;-54
2024/01/27 11:26:07;;;;;;;0.00;0.00;;;;;;;21.32;34.08;101002.69;5054992;28;20215;-55
2024/01/27 11:28:54;;;;;;;0.00;0.00;;;;;;;20.48;35.41;101004.69;5054767;28;20199;-55
2024/01/27 11:31:41;;;;;;;0.10;0.10;;;;;;;20.80;35.12;101010.31;5055028;28;20196;-55
2024/01/27 11:34:29;;;;;;;0.00;0.00;;;;;;;21.86;33.85;101018.13;5054934;28;20244;-55
2024/01/27 11:37:16;;;;;;;0.00;0.00;;;;;;;21.49;34.43;101007.59;5053736;28;20200;-54
2024/01/27 11:40:10;;;;;;;0.00;0.00;;;;;;;22.94;33.92;101010.91;5054892;28;20635;-55
2024/01/27 11:42:57;;;;;;;0.00;0.00;;;;;;;22.68;33.13;101004.97;5054414;28;20719;-54
2024/01/27 11:45:44;;;;;;;0.00;0.00;;;;;;;23.73;32.05;101006.63;5054657;28;20192;-55
2024/01/27 11:48:31;;;;;;;0.00;0.00;;;;;;;22.72;32.51;101006.47;5054552;28;20293;-55
2024/01/27 11:51:19;;;;;;;0.00;0.00;;;;;;;23.16;31.95;101012.59;5053286;28;20286;-55
2024/01/27 11:54:06;;;;;;;0.00;0.00;;;;;;;24.01;31.23;100996.88;5054468;28;20200;-55
2024/01/27 11:56:54;;;;;;;0.00;0.00;;;;;;;22.89;31.90;100996.94;5039467;28;20215;-55
2024/01/27 11:59:42;;;;;;;0.00;0.00;;;;;;;25.44;29.79;100981.63;5054007;28;20200;-55
2024/01/27 12:02:29;;;;;;;0.00;0.00;;;;;;;24.08;30.14;100980.91;5054587;28;20376;-55
2024/01/27 12:05:15;;;;;;;0.00;0.00;;;;;;;26.43;27.98;100972.63;5054339;28;20255;-55
2024/01/27 12:08:02;;;;;;;0.00;0.00;;;;;;;25.76;28.65;100978.50;5052620;28;20730;-55
2024/01/27 12:10:49;;;;;;;0.00;0.00;;;;;;;26.03;28.13;100975.75;5054174;28;20196;-55
2024/01/27 12:13:37;;;;;;;0.00;0.00;;;;;;;25.40;28.73;100976.53;5054216;28;20199;-55
2024/01/27 12:16:24;;;;;;;0.00;0.00;;;;;;;26.09;28.32;100969.72;5053882;28;20188;-55
2024/01/27 12:19:11;;;;;;;0.00;0.00;;;;;;;25.97;28.69;100973.69;5052045;28;20196;-55
2024/01/27 12:21:59;;;;;;;0.00;0.00;;;;;;;23.68;30.71;100977.28;5052829;28;20200;-55
2024/01/27 12:24:45;;;;;;;0.00;0.00;;;;;;;24.64;30.22;100972.13;5053805;28;20196;-55
2024/01/27 12:27:34;;;;;;;0.00;0.00;;;;;;;24.99;29.52;100972.31;5053608;28;20220;-55
2024/01/27 12:30:22;;;;;;;0.00;0.00;;;;;;;26.01;27.84;100971.50;5053635;28;20191;-55
2024/01/27 12:33:12;;;;;;;0.00;0.00;;;;;;;24.73;29.51;100968.56;5053487;28;20255;-55
2024/01/27 12:36:00;;;;;;;0.00;0.00;;;;;;;27.02;28.23;100973.81;5052552;28;20192;-55
2024/01/27 12:38:58;;;;;;;0.00;0.00;;;;;;;27.49;26.46;100970.63;5053541;28;20678;-56
2024/01/27 12:41:45;;;;;;;0.00;0.00;;;;;;;26.51;27.54;100972.69;5053677;28;20196;-55
2024/01/27 12:44:32;;;;;;;0.00;0.00;;;;;;;25.92;27.90;100955.09;5053544;28;20242;-55
2024/01/27 12:47:21;;;;;;;0.00;0.00;;;;;;;24.54;28.91;100975.69;5053387;28;20741;-55
2024/01/27 12:50:09;;;;;;;0.00;0.00;;;;;;;23.17;30.68;100979.19;5053323;28;20267;-55
2024/01/27 12:52:56;;;;;;;0.00;0.00;;;;;;;24.37;30.51;100978.28;5052136;28;20683;-55
2024/01/27 12:55:43;;;;;;;0.00;0.00;;;;;;;25.78;28.84;100971.94;5053034;28;20663;-55
2024/01/27 12:58:30;;;;;;;0.00;0.00;;;;;;;24.45;30.03;100971.13;5053127;28;20248;-55